Time;durP1;ratioP1;P1;durP2;ratioP2;P2;SDS_P1;SDS_P2;PMS_P1;PMS_P2;Temp;Humidity;BMP_temperature;BMP_pressure;BME280_temperature;BME280_humidity;BME280_pressure;Samples;Min_cycle;Max_cycle;Signal;HPM_P1;HPM_P2
2023/04/28 00:01:10;;;;;;;;;;;;;;;-140.72;0.00;52762.22;5087769;28;19924;-70
2023/04/28 00:03:36;;;;;;;;;;;;;;;-140.72;0.00;52814.97;5087523;28;19935;-70
2023/04/28 00:06:03;;;;;;;;;;;;;;;-140.72;0.00;52768.28;5084693;28;20382;-70
2023/04/28 00:08:29;;;;;;;;;;;;;;;-140.72;0.00;52798.72;5091215;28;20597;-69
2023/04/28 00:10:54;;;;;;;;;;;;;;;-140.72;0.00;52766.25;5090798;28;19928;-69
2023/04/28 00:13:19;;;;;;;;;;;;;;;-140.72;0.00;52748.00;5086145;28;20031;-70
2023/04/28 00:15:44;;;;;;;;;;;;;;;-140.72;0.00;52796.72;5090537;28;19928;-69
2023/04/28 00:18:10;;;;;;;;;;;;;;;-140.72;0.00;52760.19;5088548;28;19966;-70
2023/04/28 00:20:35;;;;;;;;;;;;;;;-140.72;0.00;52804.81;5091072;28;19920;-69
2023/04/28 00:23:00;;;;;;;;;;;;;;;-140.72;0.00;52770.31;5086614;28;19925;-70
2023/04/28 00:25:26;;;;;;;;;;;;;;;-140.72;0.00;52776.41;5086616;28;19926;-69
2023/04/28 00:27:51;;;;;;;;;;;;;;;-140.72;0.00;52796.72;5089935;28;19926;-70
2023/04/28 00:30:16;;;;;;;;;;;;;;;-140.72;0.00;52768.28;5091097;28;19962;-70
2023/04/28 00:32:41;;;;;;;;;;;;;;;-140.72;0.00;52717.56;5087660;28;19963;-70
2023/04/28 00:35:07;;;;;;;;;;;;;;;-140.72;0.00;52768.28;5086329;28;19973;-70
2023/04/28 00:37:34;;;;;;;;;;;;;;;-140.72;0.00;52778.44;5089876;28;19931;-70
2023/04/28 00:40:00;;;;;;;;;;;;;;;-140.72;0.00;52776.41;5087087;28;20381;-70
2023/04/28 00:42:25;;;;;;;;;;;;;;;-140.72;0.00;52772.34;5085947;28;19920;-70
2023/04/28 00:44:50;;;;;;;;;;;;;;;-140.72;0.00;52752.06;5088724;28;19924;-70
2023/04/28 00:47:16;;;;;;;;;;;;;;;-140.72;0.00;52752.06;5089816;28;19920;-70
2023/04/28 00:49:42;;;;;;;;;;;;;;;-140.72;0.00;52750.03;5091551;28;19972;-70
2023/04/28 00:52:07;;;;;;;;;;;;;;;-140.72;0.00;52786.56;5089349;28;20086;-70
2023/04/28 00:54:35;;;;;;;;;;;;;;;-140.72;0.00;52776.41;5087502;28;19924;-70
2023/04/28 00:57:01;;;;;;;;;;;;;;;-140.72;0.00;52750.03;5088741;28;19927;-70
2023/04/28 00:59:34;;;;;;;;;;;;;;;-140.72;0.00;52768.28;5116857;27;19946;-70
2023/04/28 01:02:00;;;;;;;;;;;;;;;-140.72;0.00;52756.13;5123174;27;19919;-70
2023/04/28 01:04:25;;;;;;;;;;;;;;;-140.72;0.00;52766.25;5111896;27;19930;-70
2023/04/28 01:06:52;;;;;;;;;;;;;;;-140.72;0.00;52735.81;5123284;27;19923;-69
2023/04/28 01:09:17;;;;;;;;;;;;;;;-140.72;0.00;52786.56;5116942;27;19928;-70
2023/04/28 01:11:42;;;;;;;;;;;;;;;-140.72;0.00;52784.53;5121930;27;19932;-70
2023/04/28 01:14:08;;;;;;;;;;;;;;;-140.72;0.00;52788.59;5113523;27;19928;-70
2023/04/28 01:16:34;;;;;;;;;;;;;;;-140.72;0.00;52778.44;5124005;27;19919;-70
2023/04/28 01:18:59;;;;;;;;;;;;;;;-140.72;0.00;52784.53;5117941;27;20361;-70
2023/04/28 01:21:27;;;;;;;;;;;;;;;-140.72;0.00;52748.00;5110792;28;20294;-70
2023/04/28 01:23:53;;;;;;;;;;;;;;;-140.72;0.00;52758.16;5113955;27;20046;-70
2023/04/28 01:26:18;;;;;;;;;;;;;;;-140.72;0.00;52739.88;5119328;28;19994;-70
2023/04/28 01:28:43;;;;;;;;;;;;;;;-140.72;0.00;52748.00;5108782;27;19920;-70
2023/04/28 01:31:08;;;;;;;;;;;;;;;-140.72;0.00;52768.28;5114560;28;19946;-70
2023/04/28 01:33:35;;;;;;;;;;;;;;;-140.72;0.00;52800.75;5108479;27;19928;-70
2023/04/28 01:36:01;;;;;;;;;;;;;;;-140.72;0.00;52758.16;5110537;28;20302;-70
2023/04/28 01:38:26;;;;;;;;;;;;;;;-140.72;0.00;52804.81;5110131;27;19920;-70
2023/04/28 01:40:53;;;;;;;;;;;;;;;-140.72;0.00;52766.25;5106503;27;20033;-70
2023/04/28 01:43:18;;;;;;;;;;;;;;;-140.72;0.00;52752.06;5114246;28;19920;-70
2023/04/28 01:45:43;;;;;;;;;;;;;;;-140.72;0.00;52768.28;5116430;28;19968;-70
2023/04/28 01:48:08;;;;;;;;;;;;;;;-140.72;0.00;52743.94;5107343;28;20024;-70
2023/04/28 01:50:34;;;;;;;;;;;;;;;-140.72;0.00;52721.63;5115083;28;20056;-68
2023/04/28 01:52:59;;;;;;;;;;;;;;;-140.72;0.00;52737.84;5109411;27;19959;-70
2023/04/28 01:55:24;;;;;;;;;;;;;;;-140.72;0.00;52752.06;5113049;27;19920;-70
2023/04/28 01:57:49;;;;;;;;;;;;;;;-140.72;0.00;52762.22;5111991;27;19920;-70
2023/04/28 02:00:15;;;;;;;;;;;;;;;-140.72;0.00;52780.47;5113495;27;19923;-70
2023/04/28 02:02:40;;;;;;;;;;;;;;;-140.72;0.00;52790.63;5110702;28;20331;-70
2023/04/28 02:05:06;;;;;;;;;;;;;;;-140.72;0.00;52727.72;5110612;28;19920;-70
2023/04/28 02:07:31;;;;;;;;;;;;;;;-140.72;0.00;52735.81;5114176;27;19923;-70
2023/04/28 02:09:56;;;;;;;;;;;;;;;-140.72;0.00;52752.06;5092365;28;19999;-70
2023/04/28 02:12:21;;;;;;;;;;;;;;;-140.72;0.00;52782.50;5096451;28;19935;-69
2023/04/28 02:14:47;;;;;;;;;;;;;;;-140.72;0.00;52725.69;5102583;28;20433;-69
2023/04/28 02:17:12;;;;;;;;;;;;;;;-140.72;0.00;52770.31;5100201;28;19920;-68
2023/04/28 02:19:37;;;;;;;;;;;;;;;-140.72;0.00;52725.69;5101179;28;19982;-68
2023/04/28 02:22:02;;;;;;;;;;;;;;;-140.72;0.00;52758.16;5108021;28;20022;-69
2023/04/28 02:24:28;;;;;;;;;;;;;;;-140.72;0.00;52758.16;5101836;28;19920;-68
2023/04/28 02:26:53;;;;;;;;;;;;;;;-140.72;0.00;52782.50;5103273;28;19920;-69
2023/04/28 02:29:18;;;;;;;;;;;;;;;-140.72;0.00;52760.19;5095247;28;19925;-70
2023/04/28 02:31:43;;;;;;;;;;;;;;;-140.72;0.00;52750.03;5095668;28;19966;-70
2023/04/28 02:34:09;;;;;;;;;;;;;;;-140.72;0.00;52782.50;5089920;28;19970;-68
2023/04/28 02:36:34;;;;;;;;;;;;;;;-140.72;0.00;52806.84;5098387;28;19920;-70
2023/04/28 02:39:00;;;;;;;;;;;;;;;-140.72;0.00;52758.16;5096810;28;19927;-68
2023/04/28 02:41:25;;;;;;;;;;;;;;;-140.72;0.00;52790.63;5099293;28;19974;-68
2023/04/28 02:43:50;;;;;;;;;;;;;;;-140.72;0.00;52778.44;5102597;28;19924;-68
2023/04/28 02:46:16;;;;;;;;;;;;;;;-140.72;0.00;52762.22;5095800;28;19921;-69
2023/04/28 02:48:41;;;;;;;;;;;;;;;-140.72;0.00;52758.16;5100782;28;19924;-70
2023/04/28 02:51:06;;;;;;;;;;;;;;;-140.72;0.00;52733.78;5096484;28;19920;-68
2023/04/28 02:53:31;;;;;;;;;;;;;;;-140.72;0.00;52764.25;5099527;28;19923;-68
2023/04/28 02:55:57;;;;;;;;;;;;;;;-140.72;0.00;52780.47;5096751;28;19943;-68
2023/04/28 02:58:22;;;;;;;;;;;;;;;-140.72;0.00;52727.72;5099958;28;19946;-68
2023/04/28 03:00:47;;;;;;;;;;;;;;;-140.72;0.00;52780.47;5099354;28;19923;-68
2023/04/28 03:03:12;;;;;;;;;;;;;;;-140.72;0.00;52731.75;5100496;28;19920;-68
2023/04/28 03:05:38;;;;;;;;;;;;;;;-140.72;0.00;52784.53;5098859;28;19959;-69
2023/04/28 03:08:03;;;;;;;;;;;;;;;-140.72;0.00;52762.22;5095831;28;19982;-68
2023/04/28 03:10:28;;;;;;;;;;;;;;;-140.72;0.00;52762.22;5096393;28;20031;-68
2023/04/28 03:12:53;;;;;;;;;;;;;;;-140.72;0.00;52804.81;5096387;28;19921;-68
2023/04/28 03:15:19;;;;;;;;;;;;;;;-140.72;0.00;52780.47;5099727;28;19927;-69
2023/04/28 03:17:44;;;;;;;;;;;;;;;-140.72;0.00;52762.22;5100783;28;19962;-68
2023/04/28 03:20:10;;;;;;;;;;;;;;;-140.72;0.00;52776.41;5096602;28;19942;-70
2023/04/28 03:22:35;;;;;;;;;;;;;;;-140.72;0.00;52776.41;5101888;28;19968;-68
2023/04/28 03:25:00;;;;;;;;;;;;;;;-140.72;0.00;52721.63;5095467;27;19920;-68
2023/04/28 03:27:26;;;;;;;;;;;;;;;-140.72;0.00;52743.94;5104367;28;19919;-69
2023/04/28 03:29:51;;;;;;;;;;;;;;;-140.72;0.00;52739.88;5101017;28;19933;-69
2023/04/28 03:32:16;;;;;;;;;;;;;;;-140.72;0.00;52723.66;5094928;28;19920;-69
2023/04/28 03:34:41;;;;;;;;;;;;;;;-140.72;0.00;52727.72;5101222;28;19930;-69
2023/04/28 03:37:07;;;;;;;;;;;;;;;-140.72;0.00;52756.13;5106717;28;19919;-69
2023/04/28 03:39:32;;;;;;;;;;;;;;;-140.72;0.00;52778.44;5098872;28;19920;-69
2023/04/28 03:41:57;;;;;;;;;;;;;;;-140.72;0.00;52782.50;5103089;28;19920;-69
2023/04/28 03:44:22;;;;;;;;;;;;;;;-140.72;0.00;52766.25;5098765;28;19968;-69
2023/04/28 03:46:48;;;;;;;;;;;;;;;-140.72;0.00;52766.25;5099471;28;19936;-69
2023/04/28 03:49:13;;;;;;;;;;;;;;;-140.72;0.00;52760.19;5098953;28;19919;-69
2023/04/28 03:51:38;;;;;;;;;;;;;;;-140.72;0.00;52750.03;5102556;28;20267;-69
2023/04/28 03:54:04;;;;;;;;;;;;;;;-140.72;0.00;52741.91;5094028;28;19920;-69
2023/04/28 03:56:29;;;;;;;;;;;;;;;-140.72;0.00;52752.06;5097518;28;19919;-69
2023/04/28 03:58:54;;;;;;;;;;;;;;;-140.72;0.00;52733.78;5097151;27;19920;-69
2023/04/28 04:01:19;;;;;;;;;;;;;;;-140.72;0.00;52774.38;5097811;28;19954;-69
2023/04/28 04:03:44;;;;;;;;;;;;;;;-140.72;0.00;52741.91;5096863;28;19924;-69
2023/04/28 04:06:10;;;;;;;;;;;;;;;-140.72;0.00;52739.88;5100759;28;19919;-69
2023/04/28 04:08:35;;;;;;;;;;;;;;;-140.72;0.00;52750.03;5096307;28;19924;-69
2023/04/28 04:11:00;;;;;;;;;;;;;;;-140.72;0.00;52750.03;5097747;28;19924;-69
2023/04/28 04:13:26;;;;;;;;;;;;;;;-140.72;0.00;52768.28;5092443;28;19928;-69
2023/04/28 04:15:51;;;;;;;;;;;;;;;-140.72;0.00;52764.25;5094387;28;19972;-69
2023/04/28 04:18:17;;;;;;;;;;;;;;;-140.72;0.00;52689.16;5097050;28;19970;-69
2023/04/28 04:20:42;;;;;;;;;;;;;;;-140.72;0.00;52739.88;5087666;28;19935;-69
2023/04/28 04:23:07;;;;;;;;;;;;;;;-140.72;0.00;52743.94;5097956;28;20338;-69
2023/04/28 04:25:32;;;;;;;;;;;;;;;-140.72;0.00;52782.50;5097108;28;20320;-69
2023/04/28 04:27:58;;;;;;;;;;;;;;;-140.72;0.00;52780.47;5101311;28;19962;-69
2023/04/28 04:30:23;;;;;;;;;;;;;;;-140.72;0.00;52794.69;5093794;28;19920;-69
2023/04/28 04:32:49;;;;;;;;;;;;;;;-140.72;0.00;52737.84;5102130;28;20015;-69
2023/04/28 04:35:14;;;;;;;;;;;;;;;-140.72;0.00;52758.16;5090825;28;19920;-69
2023/04/28 04:37:39;;;;;;;;;;;;;;;-140.72;0.00;52741.91;5099199;28;19931;-69
2023/04/28 04:40:05;;;;;;;;;;;;;;;-140.72;0.00;52808.88;5094941;28;19929;-69
2023/04/28 04:42:30;;;;;;;;;;;;;;;-140.72;0.00;52748.00;5101627;28;19920;-69
2023/04/28 04:44:56;;;;;;;;;;;;;;;-140.72;0.00;52792.66;5100819;28;19926;-69
2023/04/28 04:47:21;;;;;;;;;;;;;;;-140.72;0.00;52752.06;5093815;28;19963;-69
2023/04/28 04:49:48;;;;;;;;;;;;;;;-140.72;0.00;52784.53;5100834;28;19923;-69
2023/04/28 04:52:13;;;;;;;;;;;;;;;-140.72;2.60;52778.44;5101033;28;19928;-69
2023/04/28 04:54:38;;;;;;;;;;;;;;;-140.72;36.21;52743.94;5101969;27;20080;-69
2023/04/28 04:57:03;;;;;;;;;;;;;;;-140.72;65.06;52745.97;5101874;28;19942;-69
2023/04/28 04:59:29;;;;;;;;;;;;;;;-140.72;100.00;52768.28;5099343;28;20296;-69
2023/04/28 05:01:54;;;;;;;;;;;;;;;-140.72;100.00;52764.25;5101322;28;19926;-69
2023/04/28 05:04:19;;;;;;;;;;;;;;;-140.72;100.00;52735.81;5098986;28;20484;-69
2023/04/28 05:06:45;;;;;;;;;;;;;;;-140.72;100.00;52776.41;5096157;28;19934;-69
2023/04/28 05:09:10;;;;;;;;;;;;;;;-140.72;100.00;52780.47;5100050;28;20281;-69
2023/04/28 05:11:35;;;;;;;;;;;;;;;-140.72;100.00;52774.38;5093992;28;19923;-69
2023/04/28 05:14:00;;;;;;;;;;;;;;;-140.72;100.00;52776.41;5100400;28;19924;-68
2023/04/28 05:16:25;;;;;;;;;;;;;;;-140.72;100.00;52748.00;5091151;28;20294;-69
2023/04/28 05:18:51;;;;;;;;;;;;;;;-140.72;100.00;52774.38;5102276;28;19929;-69
2023/04/28 05:21:17;;;;;;;;;;;;;;;-140.72;100.00;52760.19;5091733;28;19919;-69
2023/04/28 05:23:42;;;;;;;;;;;;;;;-140.72;100.00;52741.91;5089544;28;20396;-68
2023/04/28 05:26:07;;;;;;;;;;;;;;;-140.72;100.00;52794.69;5099997;28;19954;-69
2023/04/28 05:28:32;;;;;;;;;;;;;;;-140.72;100.00;52788.59;5096588;28;19919;-69
2023/04/28 05:30:58;;;;;;;;;;;;;;;-140.72;100.00;52756.13;5098403;28;19920;-69
2023/04/28 05:33:23;;;;;;;;;;;;;;;-140.72;100.00;52778.44;5091569;28;19920;-70
2023/04/28 05:35:48;;;;;;;;;;;;;;;-140.72;100.00;52774.38;5098618;28;20366;-70
2023/04/28 05:38:13;;;;;;;;;;;;;;;-140.72;100.00;52798.72;5089793;28;20382;-68
2023/04/28 05:40:39;;;;;;;;;;;;;;;-140.72;100.00;52792.66;5099781;28;19924;-68
2023/04/28 05:43:04;;;;;;;;;;;;;;;-140.72;100.00;52817.00;5095513;28;20369;-69
2023/04/28 05:45:29;;;;;;;;;;;;;;;-140.72;100.00;52756.13;5097299;28;19942;-72
2023/04/28 05:47:55;;;;;;;;;;;;;;;-140.72;100.00;52780.47;5091156;28;19920;-69
2023/04/28 05:50:20;;;;;;;;;;;;;;;-140.72;100.00;52758.16;5101862;28;19920;-69
2023/04/28 05:52:46;;;;;;;;;;;;;;;-140.72;100.00;52760.19;5096910;28;20318;-69
2023/04/28 05:55:11;;;;;;;;;;;;;;;-140.72;100.00;52784.53;5101766;28;19920;-69
2023/04/28 05:57:36;;;;;;;;;;;;;;;-140.72;100.00;52752.06;5099759;28;19924;-69
2023/04/28 06:00:02;;;;;;;;;;;;;;;-140.72;100.00;52752.06;5088099;28;20216;-69
2023/04/28 06:02:27;;;;;;;;;;;;;;;-140.72;100.00;52764.25;5092569;28;19916;-68
2023/04/28 06:04:52;;;;;;;;;;;;;;;-140.72;100.00;52768.28;5091334;28;19920;-69
2023/04/28 06:07:17;;;;;;;;;;;;;;;-140.72;100.00;52770.31;5092427;28;19921;-69
2023/04/28 06:09:42;;;;;;;;;;;;;;;-140.72;100.00;52780.47;5083670;28;20367;-68
2023/04/28 06:12:08;;;;;;;;;;;;;;;-140.72;100.00;52758.16;5098986;28;19924;-69
2023/04/28 06:14:35;;;;;;;;;;;;;;;-140.72;100.00;52760.19;5092952;28;19921;-69
2023/04/28 06:17:00;;;;;;;;;;;;;;;-140.72;100.00;52745.97;5094590;28;19920;-68
2023/04/28 06:19:25;;;;;;;;;;;;;;;-140.72;100.00;52739.88;5088420;28;19924;-69
2023/04/28 06:21:51;;;;;;;;;;;;;;;-140.72;100.00;52752.06;5088001;28;19916;-69
2023/04/28 06:24:17;;;;;;;;;;;;;;;-140.72;100.00;52756.13;5092862;28;20530;-69
2023/04/28 06:26:42;;;;;;;;;;;;;;;-140.72;100.00;52778.44;5089965;28;19954;-69
2023/04/28 06:29:07;;;;;;;;;;;;;;;-140.72;100.00;52786.56;5091230;28;19962;-69
2023/04/28 06:31:32;;;;;;;;;;;;;;;-140.72;100.00;52715.53;5088252;28;19927;-69
2023/04/28 06:33:57;;;;;;;;;;;;;;;-140.72;100.00;52810.91;5094910;28;19916;-69
2023/04/28 06:36:23;;;;;;;;;;;;;;;-140.72;100.00;52772.34;5094712;28;19927;-71
2023/04/28 06:38:48;;;;;;;;;;;;;;;-140.72;100.00;52737.84;5089162;28;20388;-71
2023/04/28 06:41:13;;;;;;;;;;;;;;;-140.72;100.00;52743.94;5087593;28;19917;-70
2023/04/28 06:43:38;;;;;;;;;;;;;;;-140.72;100.00;52733.78;5092991;28;19920;-68
2023/04/28 06:46:04;;;;;;;;;;;;;;;-140.72;100.00;52739.88;5092612;28;19916;-68
2023/04/28 06:48:29;;;;;;;;;;;;;;;-140.72;100.00;52752.06;5088217;28;20374;-68
2023/04/28 06:50:55;;;;;;;;;;;;;;;-140.72;100.00;52780.47;5084615;28;20477;-68
2023/04/28 06:53:20;;;;;;;;;;;;;;;-140.72;100.00;52748.00;5085274;28;20031;-68
2023/04/28 06:55:45;;;;;;;;;;;;;;;-140.72;100.00;52772.34;5095836;28;19927;-68
2023/04/28 06:58:11;;;;;;;;;;;;;;;-140.72;100.00;52772.34;5083893;28;20010;-68
2023/04/28 07:00:36;;;;;;;;;;;;;;;-140.72;100.00;52756.13;5085309;28;20015;-68
2023/04/28 07:03:01;;;;;;;;;;;;;;;-140.72;100.00;52756.13;5096269;28;19928;-68
2023/04/28 07:05:27;;;;;;;;;;;;;;;-140.72;100.00;52737.84;5088529;28;19928;-68
2023/04/28 07:07:53;;;;;;;;;;;;;;;-140.72;100.00;52745.97;5089546;28;19943;-68
2023/04/28 07:10:18;;;;;;;;;;;;;;;-140.72;100.00;52776.41;5098811;28;19924;-68
2023/04/28 07:12:43;;;;;;;;;;;;;;;-140.72;100.00;52729.75;5086975;28;19965;-68
2023/04/28 07:15:09;;;;;;;;;;;;;;;-140.72;100.00;52731.75;5097095;28;19946;-68
2023/04/28 07:17:34;;;;;;;;;;;;;;;-140.72;100.00;52768.28;5098084;28;20393;-68
2023/04/28 07:19:59;;;;;;;;;;;;;;;-140.72;100.00;52796.72;5094692;28;19927;-68
2023/04/28 07:22:25;;;;;;;;;;;;;;;-140.72;100.00;52770.31;5094337;28;19939;-68
2023/04/28 07:24:51;;;;;;;;;;;;;;;-140.72;100.00;52808.88;5093064;28;20022;-68
2023/04/28 07:27:17;;;;;;;;;;;;;;;-140.72;100.00;52784.53;5085283;28;19923;-68
2023/04/28 07:29:43;;;;;;;;;;;;;;;-140.72;100.00;52774.38;5086579;28;19919;-68
2023/04/28 07:32:09;;;;;;;;;;;;;;;-140.72;100.00;52768.28;5098337;28;19919;-69
2023/04/28 07:34:34;;;;;;;;;;;;;;;-140.72;100.00;52750.03;5097135;28;19965;-70
2023/04/28 07:37:00;;;;;;;;;;;;;;;-140.72;100.00;52750.03;5102416;28;20429;-68
2023/04/28 07:39:25;;;;;;;;;;;;;;;-140.72;100.00;52745.97;5095090;28;19974;-69
2023/04/28 07:41:51;;;;;;;;;;;;;;;-140.72;100.00;52743.94;5096812;28;19919;-70
2023/04/28 07:44:16;;;;;;;;;;;;;;;-140.72;100.00;52748.00;5096896;28;20677;-70
2023/04/28 07:46:41;;;;;;;;;;;;;;;-140.72;100.00;52737.84;5099773;28;19988;-68
2023/04/28 07:49:07;;;;;;;;;;;;;;;-140.72;100.00;52711.47;5096208;28;19927;-72
2023/04/28 07:51:32;;;;;;;;;;;;;;;-140.72;100.00;52725.69;5094617;28;19923;-72
2023/04/28 07:53:57;;;;;;;;;;;;;;;-140.72;100.00;52752.06;5086757;28;19921;-72
2023/04/28 07:56:43;;;;;;;;;;;;;;;-140.72;100.00;52731.75;5097591;28;19916;-72
2023/04/28 07:59:08;;;;;;;;;;;;;;;-140.72;100.00;52739.88;5092257;28;19920;-71
2023/04/28 08:01:33;;;;;;;;;;;;;;;-140.72;100.00;52745.97;5101732;28;19921;-71
2023/04/28 08:03:59;;;;;;;;;;;;;;;-140.72;100.00;52741.91;5099876;28;19920;-73
2023/04/28 08:06:24;;;;;;;;;;;;;;;-140.72;100.00;52697.28;5092486;28;19928;-71
2023/04/28 08:08:49;;;;;;;;;;;;;;;-140.72;100.00;52725.69;5096959;28;19924;-72
2023/04/28 08:11:14;;;;;;;;;;;;;;;-140.72;100.00;52711.47;5095297;28;19927;-70
2023/04/28 08:13:40;;;;;;;;;;;;;;;-140.72;100.00;52709.44;5101098;27;19920;-70
2023/04/28 08:16:06;;;;;;;;;;;;;;;-140.72;100.00;52691.19;5092355;28;20287;-72
2023/04/28 08:18:34;;;;;;;;;;;;;;;-140.72;100.00;52711.47;5084416;28;19920;-71
2023/04/28 08:20:59;;;;;;;;;;;;;;;-140.72;100.00;52721.63;5084206;28;20012;-71
2023/04/28 08:23:27;;;;;;;;;;;;;;;-140.72;100.00;52748.00;5078981;28;19951;-73
2023/04/28 08:25:52;;;;;;;;;;;;;;;-140.72;100.00;52709.44;5085088;28;19935;-72
2023/04/28 08:28:17;;;;;;;;;;;;;;;-140.72;100.00;52729.75;5096561;28;19920;-71
2023/04/28 08:30:43;;;;;;;;;;;;;;;-140.72;100.00;52717.56;5084365;28;19920;-76
2023/04/28 08:33:08;;;;;;;;;;;;;;;-140.72;100.00;52748.00;5086676;28;20373;-72
2023/04/28 08:35:33;;;;;;;;;;;;;;;-140.72;100.00;52715.53;5095782;28;19939;-72
2023/04/28 08:37:58;;;;;;;;;;;;;;;-140.72;100.00;52713.50;5090304;28;19924;-69
2023/04/28 08:40:25;;;;;;;;;;;;;;;-140.72;100.00;52703.34;5088139;28;19973;-71
2023/04/28 08:42:51;;;;;;;;;;;;;;;-140.72;100.00;52695.25;5090183;28;19959;-72
2023/04/28 08:45:16;;;;;;;;;;;;;;;-140.72;100.00;52715.53;5088995;28;19967;-70
2023/04/28 08:47:44;;;;;;;;;;;;;;;-140.72;100.00;52754.09;5086378;28;19947;-71
2023/04/28 08:50:11;;;;;;;;;;;;;;;-140.72;100.00;52691.19;5089450;28;19920;-72
2023/04/28 08:52:37;;;;;;;;;;;;;;;-140.72;100.00;52693.22;5088989;28;19973;-72
2023/04/28 08:55:06;;;;;;;;;;;;;;;-140.72;100.00;52729.75;5090141;28;20340;-73
2023/04/28 08:57:35;;;;;;;;;;;;;;;-140.72;100.00;52713.50;5088711;28;19920;-75
2023/04/28 09:00:00;;;;;;;;;;;;;;;-140.72;100.00;52715.53;5090727;28;19920;-74
2023/04/28 09:02:25;;;;;;;;;;;;;;;-140.72;100.00;52691.19;5086465;28;19924;-71
2023/04/28 09:04:50;;;;;;;;;;;;;;;-140.72;100.00;52644.50;5091340;28;20342;-72
2023/04/28 09:07:16;;;;;;;;;;;;;;;-140.72;100.00;52658.72;5087628;28;19920;-72
2023/04/28 09:09:41;;;;;;;;;;;;;;;-140.72;100.00;52711.47;5090255;28;19917;-74
2023/04/28 09:12:06;;;;;;;;;;;;;;;-140.72;100.00;52683.06;5094210;28;19927;-74
2023/04/28 09:14:33;;;;;;;;;;;;;;;-140.72;100.00;52679.00;5095879;28;20033;-73
2023/04/28 09:16:58;;;;;;;;;;;;;;;-140.72;100.00;52674.94;5084262;28;19921;-72
2023/04/28 09:19:31;;;;;;;;;;;;;;;-140.72;100.00;52636.38;5094361;28;19927;-72
2023/04/28 09:21:57;;;;;;;;;;;;;;;-140.72;100.00;52691.19;5090398;28;19927;-72
2023/04/28 09:24:32;;;;;;;;;;;;;;;-140.72;100.00;52640.44;5090102;28;20011;-74
2023/04/28 09:26:58;;;;;;;;;;;;;;;-140.72;100.00;52689.16;5086174;28;19916;-72
2023/04/28 09:29:23;;;;;;;;;;;;;;;-140.72;100.00;52689.16;5091654;28;19930;-72
2023/04/28 09:31:49;;;;;;;;;;;;;;;-140.72;100.00;52674.94;5077431;28;19917;-73
2023/04/28 09:34:14;;;;;;;;;;;;;;;-140.72;100.00;52638.41;5088540;28;20019;-72
2023/04/28 09:36:39;;;;;;;;;;;;;;;-140.72;100.00;52648.56;5089306;28;19920;-72
2023/04/28 09:39:04;;;;;;;;;;;;;;;-140.72;100.00;52646.53;5090713;28;20377;-71
2023/04/28 09:41:40;;;;;;;;;;;;;;;-140.72;100.00;52644.50;5081774;28;19966;-71
2023/04/28 09:44:09;;;;;;;;;;;;;;;-140.72;100.00;52664.81;5090967;28;19934;-71
2023/04/28 09:46:34;;;;;;;;;;;;;;;-140.72;100.00;52618.13;5097705;28;19921;-71
2023/04/28 09:49:01;;;;;;;;;;;;;;;-140.72;100.00;52620.16;5096490;28;20443;-71
2023/04/28 09:51:26;;;;;;;;;;;;;;;-140.72;100.00;52630.31;5095077;28;19972;-72
2023/04/28 09:53:52;;;;;;;;;;;;;;;-140.72;100.00;52656.69;5097328;28;20010;-72
2023/04/28 09:56:20;;;;;;;;;;;;;;;-140.72;100.00;52622.19;5100723;28;20279;-74
2023/04/28 09:58:46;;;;;;;;;;;;;;;-140.72;100.00;52668.84;5088893;28;20015;-72
2023/04/28 10:01:31;;;;;;;;;;;;;;;-140.72;100.00;52642.47;5094449;28;19929;-71
2023/04/28 10:03:58;;;;;;;;;;;;;;;-140.72;100.00;52624.22;5082891;28;19948;-71
2023/04/28 10:06:24;;;;;;;;;;;;;;;-140.72;100.00;52599.88;5087109;28;19921;-75
2023/04/28 10:08:50;;;;;;;;;;;;;;;-140.72;100.00;52630.31;5085621;28;19927;-71
2023/04/28 10:11:16;;;;;;;;;;;;;;;-140.72;100.00;52622.19;5089994;28;19946;-71
2023/04/28 10:13:42;;;;;;;;;;;;;;;-140.72;100.00;52662.78;5083889;28;19920;-71
2023/04/28 10:16:34;;;;;;;;;;;;;;;-140.72;100.00;52620.16;5085350;28;19956;-72
2023/04/28 10:19:00;;;;;;;;;;;;;;;-140.72;100.00;52654.66;5092371;28;19920;-71
2023/04/28 10:21:27;;;;;;;;;;;;;;;-140.72;100.00;52679.00;5091807;28;19968;-71
2023/04/28 10:24:11;;;;;;;;;;;;;;;-140.72;100.00;52648.56;5086491;28;19920;-72
2023/04/28 10:27:03;;;;;;;;;;;;;;;-140.72;100.00;52654.66;5081268;28;20001;-71
2023/04/28 10:29:29;;;;;;;;;;;;;;;-140.72;100.00;52620.16;5082077;28;19920;-71
2023/04/28 10:32:13;;;;;;;;;;;;;;;-140.72;100.00;52632.34;5096043;28;19916;-72
2023/04/28 10:34:38;;;;;;;;;;;;;;;-140.72;100.00;52670.88;5095456;28;19920;-73
2023/04/28 10:37:04;;;;;;;;;;;;;;;-140.72;100.00;52676.97;5098218;28;19923;-82
2023/04/28 10:39:29;;;;;;;;;;;;;;;-140.72;100.00;52668.84;5092049;28;19927;-78
2023/04/28 10:41:54;;;;;;;;;;;;;;;-140.72;100.00;52670.88;5105784;28;20543;-76
2023/04/28 10:44:29;;;;;;;;;;;;;;;-140.72;100.00;52676.97;5099418;28;19926;-74
2023/04/28 10:47:03;;;;;;;;;;;;;;;-140.72;100.00;52656.69;5096392;28;20003;-77
2023/04/28 10:49:47;;;;;;;;;;;;;;;-140.72;100.00;52670.88;5094439;28;19920;-71
2023/04/28 10:52:45;;;;;;;;;;;;;;;-140.72;100.00;52642.47;5093564;28;19920;-72
2023/04/28 10:55:31;;;;;;;;;;;;;;;-140.72;100.00;52662.78;5083559;28;19920;-71
2023/04/28 10:58:14;;;;;;;;;;;;;;;-140.72;100.00;52683.06;5094575;28;19924;-71
2023/04/28 11:00:40;;;;;;;;;;;;;;;-140.72;100.00;52707.41;5097595;28;19920;-71
2023/04/28 11:03:05;;;;;;;;;;;;;;;-140.72;100.00;52695.25;5078010;28;19978;-72
2023/04/28 11:05:32;;;;;;;;;;;;;;;-140.72;100.00;52676.97;5103154;28;20374;-72
2023/04/28 11:08:16;;;;;;;;;;;;;;;-140.72;100.00;52695.25;5083101;28;19959;-73
2023/04/28 11:11:00;;;;;;;;;;;;;;;-140.72;100.00;52683.06;5087997;28;19973;-74
2023/04/28 11:13:32;;;;;;;;;;;;;;;-140.72;100.00;52679.00;5112907;28;19917;-73
2023/04/28 11:16:04;;;;;;;;;;;;;;;-140.72;100.00;52658.72;5092090;28;19943;-74
2023/04/28 11:18:40;;;;;;;;;;;;;;;-140.72;100.00;52697.28;5098080;28;20429;-73
2023/04/28 11:21:06;;;;;;;;;;;;;;;-140.72;100.00;52703.34;5088277;28;19954;-71
2023/04/28 11:23:32;;;;;;;;;;;;;;;-140.72;100.00;52674.94;5098835;28;19927;-71
2023/04/28 11:25:58;;;;;;;;;;;;;;;-140.72;100.00;52689.16;5082108;28;20378;-72
2023/04/28 11:28:23;;;;;;;;;;;;;;;-140.72;100.00;52650.59;5092929;28;20289;-71
2023/04/28 11:30:48;;;;;;;;;;;;;;;-140.72;100.00;52693.22;5094225;28;19920;-71
2023/04/28 11:33:14;;;;;;;;;;;;;;;-140.72;100.00;52709.44;5088072;28;19926;-71
2023/04/28 11:35:40;;;;;;;;;;;;;;;-140.72;100.00;52672.91;5094959;28;20007;-72
2023/04/28 11:38:05;;;;;;;;;;;;;;;-140.72;100.00;52727.72;5085732;28;19924;-72
2023/04/28 11:40:31;;;;;;;;;;;;;;;-140.72;100.00;52658.72;5095463;28;19923;-75
2023/04/28 11:42:57;;;;;;;;;;;;;;;-140.72;100.00;52685.09;5097450;28;19973;-71
2023/04/28 11:45:23;;;;;;;;;;;;;;;-140.72;100.00;52616.09;5095393;28;19965;-76
2023/04/28 11:47:48;;;;;;;;;;;;;;;-140.72;100.00;52642.47;5088696;28;20434;-72
2023/04/28 11:50:14;;;;;;;;;;;;;;;-140.72;100.00;52676.97;5090655;28;19927;-71
2023/04/28 11:52:50;;;;;;;;;;;;;;;-140.72;100.00;52646.53;5091916;28;19927;-71
2023/04/28 11:55:16;;;;;;;;;;;;;;;-140.72;100.00;52650.59;5093329;28;19929;-70
2023/04/28 11:57:41;;;;;;;;;;;;;;;-140.72;100.00;52683.06;5081852;28;19916;-72
2023/04/28 12:00:13;;;;;;;;;;;;;;;-140.72;100.00;52610.00;5094641;28;19943;-75
2023/04/28 12:02:38;;;;;;;;;;;;;;;-140.72;100.00;52632.34;5077113;28;19916;-71
2023/04/28 12:05:07;;;;;;;;;;;;;;;-140.72;100.00;52662.78;5083397;28;19921;-71
2023/04/28 12:07:43;;;;;;;;;;;;;;;-140.72;100.00;52622.19;5087656;28;19927;-71
2023/04/28 12:10:15;;;;;;;;;;;;;;;-140.72;100.00;52679.00;5088921;28;19920;-71
2023/04/28 12:12:41;;;;;;;;;;;;;;;-140.72;100.00;52668.84;5087095;28;20266;-71
2023/04/28 12:15:07;;;;;;;;;;;;;;;-140.72;100.00;52685.09;5092224;28;19973;-71
2023/04/28 12:17:33;;;;;;;;;;;;;;;-140.72;100.00;52687.13;5084672;28;19916;-71
2023/04/28 12:20:00;;;;;;;;;;;;;;;-140.72;100.00;52658.72;5075457;28;19920;-71
2023/04/28 12:22:25;;;;;;;;;;;;;;;-140.72;100.00;52672.91;5077005;28;19917;-71